Time,TemperatureF,DewpointF,PressureIn,WindDirection,WindDirectionDegrees,WindSpeedMPH,WindSpeedGustMPH,Humidity,HourlyPrecipIn,Conditions,Clouds,dailyrainin,SoftwareType,DateUTC
2013-05-16 00:04:00,61.1,30.2,29.74,WSW,252,0.0,0.0,31,0.00,,,0.00,Wunderground v.1.15,2013-05-16 07:04:00,
2013-05-16 00:10:00,60.7,29.9,29.74,WSW,250,0.0,0.0,31,0.00,,,0.00,Wunderground v.1.15,2013-05-16 07:10:00,
2013-05-16 00:16:00,60.5,30.5,29.74,SW,230,2.0,12.0,32,0.00,,,0.00,Wunderground v.1.15,2013-05-16 07:16:00,
2013-05-16 00:22:00,60.6,30.6,29.74,West,262,9.0,13.0,32,0.00,,,0.00,Wunderground v.1.15,2013-05-16 07:22:00,
2013-05-16 00:28:00,60.5,30.5,29.74,West,259,11.0,13.0,32,0.00,,,0.00,Wunderground v.1.15,2013-05-16 07:28:00,
2013-05-16 00:34:00,60.3,30.3,29.75,West,264,9.0,10.0,32,0.00,,,0.00,Wunderground v.1.15,2013-05-16 07:34:00,
2013-05-16 00:40:00,59.9,29.9,29.75,WSW,251,6.0,6.0,32,0.00,,,0.00,Wunderground v.1.15,2013-05-16 07:40:00,
2013-05-16 00:46:00,59.4,30.3,29.74,WSW,250,5.0,7.0,33,0.00,,,0.00,Wunderground v.1.15,2013-05-16 07:46:00,
2013-05-16 00:52:00,59.4,30.3,29.74,West,263,6.0,11.0,33,0.00,,,0.00,Wunderground v.1.15,2013-05-16 07:52:00,
2013-05-16 00:58:00,59.6,31.2,29.74,WSW,255,4.0,11.0,34,0.00,,,0.00,Wunderground v.1.15,2013-05-16 07:58:00,
2013-05-16 01:04:00,59.3,31.6,29.75,WSW,253,3.0,5.0,35,0.00,,,0.00,Wunderground v.1.15,2013-05-16 08:04:00,
2013-05-16 01:10:00,58.7,31.8,29.75,West,262,3.0,5.0,36,0.00,,,0.00,Wunderground v.1.15,2013-05-16 08:10:00,
2013-05-16 01:16:00,59.2,33.6,29.75,NW,308,3.0,5.0,38,0.00,,,0.00,Wunderground v.1.15,2013-05-16 08:16:00,
2013-05-16 01:22:00,59.6,34.6,29.74,WSW,253,5.0,7.0,39,0.00,,,0.00,Wunderground v.1.15,2013-05-16 08:22:00,
2013-05-16 01:27:00,59.8,34.8,29.75,WSW,250,6.0,9.0,39,0.00,,,0.00,Wunderground v.1.15,2013-05-16 08:27:00,
2013-05-16 01:33:00,59.9,34.9,29.75,West,274,7.0,10.0,39,0.00,,,0.00,Wunderground v.1.15,2013-05-16 08:33:00,
2013-05-16 01:39:00,59.8,35.4,29.75,WSW,255,5.0,10.0,40,0.00,,,0.00,Wunderground v.1.15,2013-05-16 08:39:00,
2013-05-16 01:45:00,59.9,35.5,29.74,West,262,1.0,5.0,40,0.00,,,0.00,Wunderground v.1.15,2013-05-16 08:45:00,
2013-05-16 01:51:00,60.1,35.7,29.74,West,265,0.0,0.0,40,0.00,,,0.00,Wunderground v.1.15,2013-05-16 08:51:00,
2013-05-16 01:57:00,60.1,35.0,29.74,SW,226,5.0,9.0,39,0.00,,,0.00,Wunderground v.1.15,2013-05-16 08:57:00,
2013-05-16 02:03:00,60.0,35.0,29.74,West,268,8.0,8.0,39,0.00,,,0.00,Wunderground v.1.15,2013-05-16 09:03:00,
2013-05-16 02:09:00,60.1,35.0,29.74,WSW,252,8.0,12.0,39,0.00,,,0.00,Wunderground v.1.15,2013-05-16 09:09:00,
2013-05-16 02:15:00,60.0,35.6,29.74,WNW,288,8.0,9.0,40,0.00,,,0.00,Wunderground v.1.15,2013-05-16 09:15:00,
2013-05-16 02:20:00,60.0,35.6,29.74,West,262,6.0,6.0,40,0.00,,,0.00,Wunderground v.1.15,2013-05-16 09:20:00,
2013-05-16 02:26:00,59.8,35.4,29.74,WNW,297,4.0,6.0,40,0.00,,,0.00,Wunderground v.1.15,2013-05-16 09:26:00,
2013-05-16 02:32:00,59.9,34.9,29.74,West,261,5.0,7.0,39,0.00,,,0.00,Wunderground v.1.15,2013-05-16 09:32:00,
2013-05-16 02:38:00,59.9,34.9,29.74,West,268,7.0,10.0,39,0.00,,,0.00,Wunderground v.1.15,2013-05-16 09:38:00,
2013-05-16 02:44:00,59.6,34.6,29.74,WSW,256,4.0,7.0,39,0.00,,,0.00,Wunderground v.1.15,2013-05-16 09:44:00,
2013-05-16 02:50:00,59.3,35.0,29.74,WNW,295,2.0,3.0,40,0.00,,,0.00,Wunderground v.1.15,2013-05-16 09:50:00,
2013-05-16 02:56:00,59.5,34.5,29.73,WNW,298,3.0,6.0,39,0.00,,,0.00,Wunderground v.1.15,2013-05-16 09:56:00,
2013-05-16 03:02:00,59.4,34.4,29.73,West,274,4.0,6.0,39,0.00,,,0.00,Wunderground v.1.15,2013-05-16 10:02:00,
2013-05-16 03:07:00,59.3,34.3,29.73,West,263,4.0,6.0,39,0.00,,,0.00,Wunderground v.1.15,2013-05-16 10:07:00,
2013-05-16 03:13:00,59.6,34.6,29.73,WSW,257,4.0,5.0,39,0.00,,,0.00,Wunderground v.1.15,2013-05-16 10:13:00,
2013-05-16 03:19:00,59.7,34.0,29.73,WNW,288,5.0,7.0,38,0.00,,,0.00,Wunderground v.1.15,2013-05-16 10:19:00,
2013-05-16 03:25:00,59.7,34.0,29.73,WSW,250,6.0,9.0,38,0.00,,,0.00,Wunderground v.1.15,2013-05-16 10:25:00,
2013-05-16 03:33:00,59.4,33.8,29.73,West,262,2.0,2.0,38,0.00,,,0.00,Wunderground v.1.15,2013-05-16 10:33:00,
2013-05-16 03:39:00,59.1,34.1,29.73,West,272,0.0,2.0,39,0.00,,,0.00,Wunderground v.1.15,2013-05-16 10:39:00,
2013-05-16 03:44:00,58.2,34.0,29.73,West,272,1.0,1.0,40,0.00,,,0.00,Wunderground v.1.15,2013-05-16 10:44:00,
2013-05-16 03:50:00,57.2,34.3,29.73,West,271,0.0,1.0,42,0.00,,,0.00,Wunderground v.1.15,2013-05-16 10:50:00,
2013-05-16 03:56:00,56.8,33.9,29.72,West,272,0.0,0.0,42,0.00,,,0.00,Wunderground v.1.15,2013-05-16 10:56:00,
2013-05-16 04:01:00,57.1,34.2,29.73,WSW,258,0.0,0.0,42,0.00,,,0.00,Wunderground v.1.15,2013-05-16 11:01:00,
2013-05-16 04:07:00,57.8,34.2,29.73,WSW,254,0.0,0.0,41,0.00,,,0.00,Wunderground v.1.15,2013-05-16 11:07:00,
2013-05-16 04:13:00,57.9,34.3,29.73,West,274,0.0,1.0,41,0.00,,,0.00,Wunderground v.1.15,2013-05-16 11:13:00,
2013-05-16 04:19:00,57.5,34.6,29.73,NNE,14,0.0,1.0,42,0.00,,,0.00,Wunderground v.1.15,2013-05-16 11:19:00,
2013-05-16 04:25:00,56.7,35.0,29.73,East,95,0.0,0.0,44,0.00,,,0.00,Wunderground v.1.15,2013-05-16 11:25:00,
2013-05-16 04:31:00,56.6,35.5,29.73,East,97,0.0,0.0,45,0.00,,,0.00,Wunderground v.1.15,2013-05-16 11:31:00,
2013-05-16 04:37:00,56.5,35.4,29.73,SSW,192,0.0,0.0,45,0.00,,,0.00,Wunderground v.1.15,2013-05-16 11:37:00,
2013-05-16 04:43:00,56.5,35.4,29.73,SSE,167,0.0,0.0,45,0.00,,,0.00,Wunderground v.1.15,2013-05-16 11:43:00,
2013-05-16 04:49:00,56.4,35.3,29.73,SSE,167,0.0,0.0,45,0.00,,,0.00,Wunderground v.1.15,2013-05-16 11:49:00,
2013-05-16 04:55:00,56.5,35.4,29.73,SSE,167,0.0,0.0,45,0.00,,,0.00,Wunderground v.1.15,2013-05-16 11:55:00,
2013-05-16 05:00:00,56.6,35.5,29.73,SSE,167,0.0,0.0,45,0.00,,,0.00,Wunderground v.1.15,2013-05-16 12:00:00,
2013-05-16 05:05:00,56.9,35.2,29.73,SSE,167,0.0,0.0,44,0.00,,,0.00,Wunderground v.1.15,2013-05-16 12:05:00,
2013-05-16 05:11:00,57.2,35.5,29.73,SSE,167,0.0,0.0,44,0.00,,,0.00,Wunderground v.1.15,2013-05-16 12:11:00,
2013-05-16 05:17:00,56.8,35.7,29.73,SSE,167,0.0,0.0,45,0.00,,,0.00,Wunderground v.1.15,2013-05-16 12:17:00,
2013-05-16 05:23:00,56.7,35.6,29.73,SSE,167,0.0,0.0,45,0.00,,,0.00,Wunderground v.1.15,2013-05-16 12:23:00,
2013-05-16 05:29:00,56.6,35.5,29.73,South,174,0.0,0.0,45,0.00,,,0.00,Wunderground v.1.15,2013-05-16 12:29:00,
2013-05-16 05:35:00,56.6,34.3,29.73,South,191,0.0,0.0,43,0.00,,,0.00,Wunderground v.1.15,2013-05-16 12:35:00,
2013-05-16 05:41:00,56.8,34.5,29.73,SSW,195,0.0,0.0,43,0.00,,,0.00,Wunderground v.1.15,2013-05-16 12:41:00,
2013-05-16 05:46:00,56.8,34.5,29.73,SSW,212,0.0,2.0,43,0.00,,,0.00,Wunderground v.1.15,2013-05-16 12:46:00,
2013-05-16 05:52:00,57.0,34.1,29.73,SW,231,1.0,1.0,42,0.00,,,0.00,Wunderground v.1.15,2013-05-16 12:52:00,
2013-05-16 05:58:00,57.2,33.7,29.73,WSW,244,0.0,1.0,41,0.00,,,0.00,Wunderground v.1.15,2013-05-16 12:58:00,
2013-05-16 06:04:00,57.3,33.2,29.73,WSW,248,1.0,2.0,40,0.00,,,0.00,Wunderground v.1.15,2013-05-16 13:04:00,
2013-05-16 06:09:00,57.5,33.3,29.73,WSW,252,2.0,3.0,40,0.00,,,0.00,Wunderground v.1.15,2013-05-16 13:09:00,
2013-05-16 06:15:00,57.3,33.2,29.72,WSW,252,2.0,2.0,40,0.00,,,0.00,Wunderground v.1.15,2013-05-16 13:15:00,
2013-05-16 06:21:00,57.2,33.1,29.73,WSW,238,1.0,2.0,40,0.00,,,0.00,Wunderground v.1.15,2013-05-16 13:21:00,
2013-05-16 06:27:00,57.2,33.7,29.72,SW,236,1.0,2.0,41,0.00,,,0.00,Wunderground v.1.15,2013-05-16 13:27:00,
2013-05-16 06:33:00,57.4,33.3,29.73,WSW,254,1.0,2.0,40,0.00,,,0.00,Wunderground v.1.15,2013-05-16 13:33:00,
2013-05-16 06:39:00,57.7,32.9,29.72,WSW,254,1.0,2.0,39,0.00,,,0.00,Wunderground v.1.15,2013-05-16 13:39:00,
2013-05-16 06:44:00,58.0,33.2,29.73,WSW,247,0.0,1.0,39,0.00,,,0.00,Wunderground v.1.15,2013-05-16 13:44:00,
2013-05-16 06:50:00,58.2,33.3,29.72,SW,235,1.0,1.0,39,0.00,,,0.00,Wunderground v.1.15,2013-05-16 13:50:00,
2013-05-16 06:55:00,58.5,33.0,29.73,WSW,243,1.0,2.0,38,0.00,,,0.00,Wunderground v.1.15,2013-05-16 13:55:00,
2013-05-16 07:00:00,58.8,33.2,29.72,WSW,238,1.0,1.0,38,0.00,,,0.00,Wunderground v.1.15,2013-05-16 14:00:00,
2013-05-16 07:06:00,58.9,32.7,29.73,SW,235,1.0,1.0,37,0.00,,,0.00,Wunderground v.1.15,2013-05-16 14:06:00,
2013-05-16 07:12:00,59.2,32.9,29.73,SW,236,0.0,0.0,37,0.00,,,0.00,Wunderground v.1.15,2013-05-16 14:12:00,
2013-05-16 07:17:00,59.4,33.1,29.73,SW,220,0.0,0.0,37,0.00,,,0.00,Wunderground v.1.15,2013-05-16 14:17:00,
2013-05-16 07:23:00,59.1,33.5,29.73,SSW,196,0.0,0.0,38,0.00,,,0.00,Wunderground v.1.15,2013-05-16 14:23:00,
2013-05-16 07:28:00,59.1,33.5,29.73,SW,220,0.0,2.0,38,0.00,,,0.00,Wunderground v.1.15,2013-05-16 14:28:00,
2013-05-16 07:34:00,59.2,33.6,29.73,WSW,243,0.0,2.0,38,0.00,,,0.00,Wunderground v.1.15,2013-05-16 14:34:00,
2013-05-16 07:40:00,59.6,33.3,29.73,WSW,254,1.0,2.0,37,0.00,,,0.00,Wunderground v.1.15,2013-05-16 14:40:00,
2013-05-16 07:46:00,59.9,32.9,29.73,WSW,244,1.0,4.0,36,0.00,,,0.00,Wunderground v.1.15,2013-05-16 14:46:00,
2013-05-16 07:52:00,60.3,33.2,29.73,WNW,302,2.0,2.0,36,0.00,,,0.00,Wunderground v.1.15,2013-05-16 14:52:00,
2013-05-16 07:57:00,60.1,34.4,29.73,NW,319,2.0,6.0,38,0.00,,,0.00,Wunderground v.1.15,2013-05-16 14:57:00,
2013-05-16 08:03:00,60.1,32.3,29.72,WSW,255,2.0,2.0,35,0.00,,,0.00,Wunderground v.1.15,2013-05-16 15:03:00,
2013-05-16 08:09:00,60.3,32.5,29.72,WSW,257,1.0,2.0,35,0.00,,,0.00,Wunderground v.1.15,2013-05-16 15:09:00,
2013-05-16 08:15:00,60.6,32.8,29.72,West,271,0.0,1.0,35,0.00,,,0.00,Wunderground v.1.15,2013-05-16 15:15:00,
2013-05-16 08:21:00,60.6,34.2,29.73,WSW,250,0.0,0.0,37,0.00,,,0.00,Wunderground v.1.15,2013-05-16 15:21:00,
2013-05-16 08:27:00,60.5,36.0,29.73,WSW,252,0.0,0.0,40,0.00,,,0.00,Wunderground v.1.15,2013-05-16 15:27:00,
2013-05-16 08:33:00,60.4,34.7,29.73,SW,219,0.0,0.0,38,0.00,,,0.00,Wunderground v.1.15,2013-05-16 15:33:00,
2013-05-16 08:38:00,60.3,35.9,29.73,South,188,0.0,0.0,40,0.00,,,0.00,Wunderground v.1.15,2013-05-16 15:38:00,
2013-05-16 08:44:00,60.3,34.6,29.73,SW,233,0.0,0.0,38,0.00,,,0.00,Wunderground v.1.15,2013-05-16 15:44:00,
2013-05-16 08:49:00,60.6,32.1,29.73,SW,220,0.0,0.0,34,0.00,,,0.00,Wunderground v.1.15,2013-05-16 15:49:00,
2013-05-16 08:55:00,60.9,31.6,29.73,WSW,245,0.0,0.0,33,0.00,,,0.00,Wunderground v.1.15,2013-05-16 15:55:00,
2013-05-16 09:00:00,61.1,31.8,29.73,WSW,243,0.0,0.0,33,0.00,,,0.00,Wunderground v.1.15,2013-05-16 16:00:00,
2013-05-16 09:06:00,61.1,31.0,29.73,SW,233,0.0,0.0,32,0.00,,,0.00,Wunderground v.1.15,2013-05-16 16:06:00,
2013-05-16 09:12:00,61.3,31.2,29.73,SW,225,0.0,0.0,32,0.00,,,0.00,Wunderground v.1.15,2013-05-16 16:12:00,
2013-05-16 09:17:00,61.3,32.7,29.73,WSW,241,0.0,0.0,34,0.00,,,0.00,Wunderground v.1.15,2013-05-16 16:17:00,
2013-05-16 09:23:00,61.3,33.4,29.73,SW,233,0.0,0.0,35,0.00,,,0.00,Wunderground v.1.15,2013-05-16 16:23:00,
2013-05-16 09:28:00,60.9,34.4,29.74,WSW,248,0.0,0.0,37,0.00,,,0.00,Wunderground v.1.15,2013-05-16 16:28:00,
2013-05-16 09:34:00,60.6,34.8,29.73,SW,221,0.0,0.0,38,0.00,,,0.00,Wunderground v.1.15,2013-05-16 16:34:00,
2013-05-16 09:40:00,60.5,34.1,29.73,SW,223,0.0,0.0,37,0.00,,,0.00,Wunderground v.1.15,2013-05-16 16:40:00,
2013-05-16 09:46:00,60.5,34.1,29.73,WSW,240,0.0,0.0,37,0.00,,,0.00,Wunderground v.1.15,2013-05-16 16:46:00,
2013-05-16 09:52:00,60.3,34.6,29.73,WSW,250,0.0,0.0,38,0.00,,,0.00,Wunderground v.1.15,2013-05-16 16:52:00,
2013-05-16 09:58:00,60.2,36.4,29.73,WSW,252,0.0,0.0,41,0.00,,,0.00,Wunderground v.1.15,2013-05-16 16:58:00,
2013-05-16 10:04:00,60.0,36.2,29.73,WSW,254,1.0,11.0,41,0.00,,,0.00,Wunderground v.1.15,2013-05-16 17:04:00,
2013-05-16 10:10:00,59.5,37.0,29.73,WSW,245,2.0,2.0,43,0.00,,,0.00,Wunderground v.1.15,2013-05-16 17:10:00,
2013-05-16 10:16:00,59.3,36.8,29.73,WSW,245,1.0,2.0,43,0.00,,,0.00,Wunderground v.1.15,2013-05-16 17:16:00,
2013-05-16 10:22:00,59.4,36.9,29.73,WSW,240,0.0,0.0,43,0.00,,,0.00,Wunderground v.1.15,2013-05-16 17:22:00,
2013-05-16 10:28:00,59.7,37.2,29.73,SW,223,0.0,0.0,43,0.00,,,0.00,Wunderground v.1.15,2013-05-16 17:28:00,
2013-05-16 10:34:00,59.7,36.6,29.73,SE,146,0.0,0.0,42,0.00,,,0.00,Wunderground v.1.15,2013-05-16 17:34:00,
2013-05-16 10:39:00,59.2,38.4,29.74,SE,146,0.0,0.0,46,0.00,,,0.00,Wunderground v.1.15,2013-05-16 17:39:00,
2013-05-16 10:45:00,58.9,39.2,29.73,SE,139,0.0,0.0,48,0.00,,,0.00,Wunderground v.1.15,2013-05-16 17:45:00,
2013-05-16 10:50:00,59.1,39.4,29.73,SSE,167,0.0,0.0,48,0.00,,,0.00,Wunderground v.1.15,2013-05-16 17:50:00,
2013-05-16 10:56:00,59.1,38.9,29.74,SSW,198,2.0,5.0,47,0.00,,,0.00,Wunderground v.1.15,2013-05-16 17:56:00,
2013-05-16 11:02:00,59.3,38.5,29.73,SSE,160,5.0,7.0,46,0.00,,,0.00,Wunderground v.1.15,2013-05-16 18:02:00,
2013-05-16 11:08:00,59.6,38.2,29.73,South,169,6.0,9.0,45,0.00,,,0.00,Wunderground v.1.15,2013-05-16 18:08:00,
2013-05-16 11:14:00,60.1,38.7,29.73,SSW,195,4.0,6.0,45,0.00,,,0.00,Wunderground v.1.15,2013-05-16 18:14:00,
2013-05-16 11:20:00,60.5,38.5,29.73,SSE,164,1.0,1.0,44,0.00,,,0.00,Wunderground v.1.15,2013-05-16 18:20:00,
2013-05-16 11:26:00,60.5,39.0,29.73,SW,218,0.0,1.0,45,0.00,,,0.00,Wunderground v.1.15,2013-05-16 18:26:00,
2013-05-16 11:32:00,60.6,39.7,29.73,SSW,209,0.0,0.0,46,0.00,,,0.00,Wunderground v.1.15,2013-05-16 18:32:00,
2013-05-16 11:38:00,60.5,38.5,29.73,South,169,0.0,0.0,44,0.00,,,0.00,Wunderground v.1.15,2013-05-16 18:38:00,
2013-05-16 11:44:00,60.6,39.1,29.73,South,191,0.0,0.0,45,0.00,,,0.00,Wunderground v.1.15,2013-05-16 18:44:00,
2013-05-16 11:50:00,60.9,38.8,29.73,SSW,209,0.0,0.0,44,0.00,,,0.00,Wunderground v.1.15,2013-05-16 18:50:00,
2013-05-16 11:56:00,61.3,39.2,29.73,SSE,147,0.0,0.0,44,0.00,,,0.00,Wunderground v.1.15,2013-05-16 18:56:00,
2013-05-16 12:02:00,61.6,38.9,29.72,SSE,160,0.0,0.0,43,0.00,,,0.00,Wunderground v.1.15,2013-05-16 19:02:00,
2013-05-16 12:08:00,61.7,39.6,29.72,SSW,198,0.0,0.0,44,0.00,,,0.00,Wunderground v.1.15,2013-05-16 19:08:00,
2013-05-16 12:14:00,62.3,39.5,29.72,South,188,0.0,0.0,43,0.00,,,0.00,Wunderground v.1.15,2013-05-16 19:14:00,
2013-05-16 12:20:00,62.3,37.7,29.72,WNW,288,0.0,0.0,40,0.00,,,0.00,Wunderground v.1.15,2013-05-16 19:20:00,
2013-05-16 12:26:00,62.8,37.5,29.72,SW,230,0.0,0.0,39,0.00,,,0.00,Wunderground v.1.15,2013-05-16 19:26:00,
2013-05-16 12:32:00,63.3,37.9,29.72,WSW,243,0.0,0.0,39,0.00,,,0.00,Wunderground v.1.15,2013-05-16 19:32:00,
2013-05-16 12:38:00,63.4,37.3,29.72,SSW,207,0.0,0.0,38,0.00,,,0.00,Wunderground v.1.15,2013-05-16 19:38:00,
2013-05-16 12:44:00,63.9,37.1,29.71,WSW,241,0.0,0.0,37,0.00,,,0.00,Wunderground v.1.15,2013-05-16 19:44:00,
2013-05-16 12:50:00,63.5,36.7,29.71,SW,226,0.0,0.0,37,0.00,,,0.00,Wunderground v.1.15,2013-05-16 19:50:00,
2013-05-16 12:56:00,64.0,37.2,29.71,SW,223,0.0,0.0,37,0.00,,,0.00,Wunderground v.1.15,2013-05-16 19:56:00,
2013-05-16 13:02:00,63.4,36.7,29.71,West,263,0.0,0.0,37,0.00,,,0.00,Wunderground v.1.15,2013-05-16 20:02:00,
2013-05-16 13:08:00,63.6,37.5,29.71,SSW,209,0.0,0.0,38,0.00,,,0.00,Wunderground v.1.15,2013-05-16 20:08:00,
2013-05-16 13:14:00,63.8,37.7,29.71,SW,230,0.0,0.0,38,0.00,,,0.00,Wunderground v.1.15,2013-05-16 20:14:00,
2013-05-16 13:20:00,63.9,37.1,29.71,WSW,256,0.0,0.0,37,0.00,,,0.00,Wunderground v.1.15,2013-05-16 20:20:00,
2013-05-16 13:26:00,63.3,37.9,29.71,WSW,256,0.0,0.0,39,0.00,,,0.00,Wunderground v.1.15,2013-05-16 20:26:00,
2013-05-16 13:32:00,63.3,37.9,29.72,WSW,247,0.0,0.0,39,0.00,,,0.00,Wunderground v.1.15,2013-05-16 20:32:00,
2013-05-16 13:38:00,63.2,37.8,29.71,West,262,0.0,0.0,39,0.00,,,0.00,Wunderground v.1.15,2013-05-16 20:38:00,
2013-05-16 13:44:00,63.3,38.6,29.71,SW,226,0.0,0.0,40,0.00,,,0.00,Wunderground v.1.15,2013-05-16 20:44:00,
2013-05-16 13:50:00,63.3,39.2,29.71,WSW,243,0.0,0.0,41,0.00,,,0.00,Wunderground v.1.15,2013-05-16 20:50:00,
2013-05-16 13:56:00,63.1,39.0,29.72,WSW,248,0.0,0.0,41,0.00,,,0.00,Wunderground v.1.15,2013-05-16 20:56:00,
2013-05-16 14:02:00,62.8,40.0,29.72,SW,224,1.0,8.0,43,0.00,,,0.00,Wunderground v.1.15,2013-05-16 21:02:00,
2013-05-16 14:08:00,62.2,41.7,29.72,West,259,5.0,10.0,47,0.00,,,0.00,Wunderground v.1.15,2013-05-16 21:08:00,
2013-05-16 14:14:00,61.9,42.0,29.72,West,269,2.0,7.0,48,0.00,,,0.00,Wunderground v.1.15,2013-05-16 21:14:00,
2013-05-16 14:20:00,61.3,42.0,29.72,West,277,3.0,3.0,49,0.00,,,0.00,Wunderground v.1.15,2013-05-16 21:20:00,
2013-05-16 14:26:00,61.3,43.0,29.72,West,266,2.0,3.0,51,0.00,,,0.00,Wunderground v.1.15,2013-05-16 21:26:00,
2013-05-16 14:32:00,61.5,42.2,29.72,SW,228,0.0,0.0,49,0.00,,,0.00,Wunderground v.1.15,2013-05-16 21:32:00,
2013-05-16 14:38:00,61.1,41.8,29.72,SW,233,0.0,0.0,49,0.00,,,0.00,Wunderground v.1.15,2013-05-16 21:38:00,
2013-05-16 14:43:00,61.2,41.3,29.72,WSW,244,1.0,1.0,48,0.00,,,0.00,Wunderground v.1.15,2013-05-16 21:43:00,
2013-05-16 14:49:00,61.1,42.8,29.72,SSW,202,1.0,1.0,51,0.00,,,0.00,Wunderground v.1.15,2013-05-16 21:49:00,
2013-05-16 14:55:00,60.7,41.9,29.72,SW,217,0.0,0.0,50,0.00,,,0.00,Wunderground v.1.15,2013-05-16 21:55:00,
2013-05-16 15:01:00,60.3,42.1,29.72,SW,224,0.0,0.0,51,0.00,,,0.00,Wunderground v.1.15,2013-05-16 22:01:00,
2013-05-16 15:07:00,60.6,41.8,29.72,WSW,243,0.0,0.0,50,0.00,,,0.00,Wunderground v.1.15,2013-05-16 22:07:00,
2013-05-16 15:13:00,61.1,40.7,29.71,SSW,207,0.0,0.0,47,0.00,,,0.00,Wunderground v.1.15,2013-05-16 22:13:00,
2013-05-16 15:20:00,61.0,41.7,29.72,SSW,203,0.0,0.0,49,0.00,,,0.00,Wunderground v.1.15,2013-05-16 22:20:00,
2013-05-16 15:25:00,60.7,43.5,29.72,SSW,193,0.0,0.0,53,0.00,,,0.00,Wunderground v.1.15,2013-05-16 22:25:00,
2013-05-16 15:30:00,60.1,42.9,29.72,SW,216,0.0,0.0,53,0.00,,,0.00,Wunderground v.1.15,2013-05-16 22:30:00,
2013-05-16 15:36:00,60.2,44.0,29.71,SSW,203,0.0,0.0,55,0.00,,,0.00,Wunderground v.1.15,2013-05-16 22:36:00,
2013-05-16 15:42:00,60.2,43.0,29.72,SSE,167,0.0,0.0,53,0.00,,,0.00,Wunderground v.1.15,2013-05-16 22:42:00,
2013-05-16 15:48:00,60.1,44.8,29.71,SSW,196,0.0,0.0,57,0.00,,,0.00,Wunderground v.1.15,2013-05-16 22:48:00,
2013-05-16 15:54:00,59.9,46.0,29.71,South,184,0.0,0.0,60,0.00,,,0.00,Wunderground v.1.15,2013-05-16 22:54:00,
2013-05-16 16:00:00,60.3,44.1,29.71,SSE,147,0.0,0.0,55,0.00,,,0.00,Wunderground v.1.15,2013-05-16 23:00:00,
2013-05-16 16:06:00,60.9,44.1,29.71,SSW,192,0.0,0.0,54,0.00,,,0.00,Wunderground v.1.15,2013-05-16 23:06:00,
2013-05-16 16:12:00,61.6,42.8,29.71,SW,226,0.0,0.0,50,0.00,,,0.00,Wunderground v.1.15,2013-05-16 23:12:00,
2013-05-16 16:18:00,62.3,43.4,29.70,SW,221,0.0,0.0,50,0.00,,,0.00,Wunderground v.1.15,2013-05-16 23:18:00,
2013-05-16 16:24:00,62.4,41.3,29.70,SSW,212,0.0,0.0,46,0.00,,,0.00,Wunderground v.1.15,2013-05-16 23:24:00,
2013-05-16 16:30:00,62.8,41.7,29.70,WSW,240,0.0,0.0,46,0.00,,,0.00,Wunderground v.1.15,2013-05-16 23:30:00,
2013-05-16 16:36:00,63.0,41.9,29.70,SSW,212,3.0,10.0,46,0.00,,,0.00,Wunderground v.1.15,2013-05-16 23:36:00,
2013-05-16 16:42:00,63.1,41.4,29.70,SW,226,3.0,3.0,45,0.00,,,0.00,Wunderground v.1.15,2013-05-16 23:42:00,
2013-05-16 16:48:00,63.1,39.0,29.70,SW,220,0.0,3.0,41,0.00,,,0.00,Wunderground v.1.15,2013-05-16 23:48:00,
2013-05-16 16:54:00,63.2,39.1,29.70,West,261,0.0,0.0,41,0.00,,,0.00,Wunderground v.1.15,2013-05-16 23:54:00,
2013-05-16 17:00:00,63.2,40.3,29.70,SW,224,0.0,0.0,43,0.00,,,0.00,Wunderground v.1.15,2013-05-17 00:00:00,
2013-05-16 17:06:00,63.1,40.2,29.70,SW,217,0.0,0.0,43,0.00,,,0.00,Wunderground v.1.15,2013-05-17 00:06:00,
2013-05-16 17:11:00,63.0,40.7,29.70,SW,222,0.0,0.0,44,0.00,,,0.00,Wunderground v.1.15,2013-05-17 00:11:00,
2013-05-16 17:17:00,63.0,39.5,29.70,NNW,330,0.0,4.0,42,0.00,,,0.00,Wunderground v.1.15,2013-05-17 00:17:00,
2013-05-16 17:23:00,61.9,42.0,29.70,NW,323,0.0,0.0,48,0.00,,,0.00,Wunderground v.1.15,2013-05-17 00:23:00,
2013-05-16 17:29:00,61.4,41.5,29.70,NNW,336,0.0,0.0,48,0.00,,,0.00,Wunderground v.1.15,2013-05-17 00:29:00,
2013-05-16 17:35:00,61.4,42.1,29.70,NNW,347,1.0,8.0,49,0.00,,,0.00,Wunderground v.1.15,2013-05-17 00:35:00,
2013-05-16 17:41:00,61.3,42.0,29.70,North,8,1.0,1.0,49,0.00,,,0.00,Wunderground v.1.15,2013-05-17 00:41:00,
2013-05-16 17:47:00,61.3,40.9,29.70,NW,324,1.0,1.0,47,0.00,,,0.00,Wunderground v.1.15,2013-05-17 00:47:00,
2013-05-16 17:53:00,61.6,41.2,29.70,NNW,346,0.0,1.0,47,0.00,,,0.00,Wunderground v.1.15,2013-05-17 00:53:00,
2013-05-16 17:59:00,61.8,41.3,29.70,WSW,243,0.0,1.0,47,0.00,,,0.00,Wunderground v.1.15,2013-05-17 00:59:00,
2013-05-16 18:05:00,61.7,41.8,29.70,WSW,251,0.0,4.0,48,0.00,,,0.00,Wunderground v.1.15,2013-05-17 01:05:00,
2013-05-16 18:11:00,60.7,43.9,29.71,WNW,289,1.0,6.0,54,0.00,,,0.00,Wunderground v.1.15,2013-05-17 01:11:00,
2013-05-16 18:17:00,58.7,43.5,29.71,WNW,293,1.0,6.0,57,0.00,,,0.00,Wunderground v.1.15,2013-05-17 01:17:00,
2013-05-16 18:23:00,57.8,44.0,29.71,NW,312,0.0,1.0,60,0.00,,,0.00,Wunderground v.1.15,2013-05-17 01:23:00,
2013-05-16 18:29:00,57.6,45.1,29.71,NNW,345,0.0,1.0,63,0.00,,,0.00,Wunderground v.1.15,2013-05-17 01:29:00,
2013-05-16 18:35:00,57.5,45.4,29.71,NW,325,0.0,0.0,64,0.00,,,0.00,Wunderground v.1.15,2013-05-17 01:35:00,
2013-05-16 18:41:00,58.2,43.9,29.71,West,272,0.0,0.0,59,0.00,,,0.00,Wunderground v.1.15,2013-05-17 01:41:00,
2013-05-16 18:47:00,59.4,41.3,29.70,SW,215,0.0,0.0,51,0.00,,,0.00,Wunderground v.1.15,2013-05-17 01:47:00,
2013-05-16 18:53:00,60.2,38.8,29.71,SW,233,0.0,0.0,45,0.00,,,0.00,Wunderground v.1.15,2013-05-17 01:53:00,
2013-05-16 18:58:00,60.4,37.2,29.71,WSW,252,0.0,0.0,42,0.00,,,0.00,Wunderground v.1.15,2013-05-17 01:58:00,
2013-05-16 19:04:00,60.4,37.2,29.71,SW,226,0.0,0.0,42,0.00,,,0.00,Wunderground v.1.15,2013-05-17 02:04:00,
2013-05-16 19:10:00,60.3,37.1,29.71,WSW,243,0.0,0.0,42,0.00,,,0.00,Wunderground v.1.15,2013-05-17 02:10:00,
2013-05-16 19:15:00,60.0,36.8,29.71,SW,222,0.0,0.0,42,0.00,,,0.00,Wunderground v.1.15,2013-05-17 02:15:00,
2013-05-16 19:21:00,59.8,36.6,29.72,SW,227,0.0,0.0,42,0.00,,,0.00,Wunderground v.1.15,2013-05-17 02:21:00,
2013-05-16 19:27:00,59.7,36.6,29.72,SW,230,0.0,0.0,42,0.00,,,0.00,Wunderground v.1.15,2013-05-17 02:27:00,
2013-05-16 19:33:00,59.7,37.2,29.72,SW,223,0.0,0.0,43,0.00,,,0.00,Wunderground v.1.15,2013-05-17 02:33:00,
2013-05-16 19:39:00,59.6,37.6,29.72,SW,233,0.0,0.0,44,0.00,,,0.00,Wunderground v.1.15,2013-05-17 02:39:00,
2013-05-16 19:44:00,59.5,37.0,29.72,WSW,239,0.0,0.0,43,0.00,,,0.00,Wunderground v.1.15,2013-05-17 02:44:00,
2013-05-16 19:50:00,59.4,36.9,29.72,WSW,242,1.0,1.0,43,0.00,,,0.00,Wunderground v.1.15,2013-05-17 02:50:00,
2013-05-16 19:56:00,59.3,36.8,29.72,WSW,248,0.0,1.0,43,0.00,,,0.00,Wunderground v.1.15,2013-05-17 02:56:00,
2013-05-16 20:02:00,59.2,36.7,29.72,West,267,0.0,0.0,43,0.00,,,0.00,Wunderground v.1.15,2013-05-17 03:02:00,
2013-05-16 20:08:00,59.2,36.7,29.73,WSW,251,3.0,12.0,43,0.00,,,0.00,Wunderground v.1.15,2013-05-17 03:08:00,
2013-05-16 20:14:00,59.1,36.0,29.73,WSW,252,8.0,13.0,42,0.00,,,0.00,Wunderground v.1.15,2013-05-17 03:14:00,
2013-05-16 20:20:00,59.0,35.9,29.74,WSW,247,8.0,8.0,42,0.00,,,0.00,Wunderground v.1.15,2013-05-17 03:20:00,
2013-05-16 20:25:00,58.9,35.2,29.73,WSW,239,6.0,8.0,41,0.00,,,0.00,Wunderground v.1.15,2013-05-17 03:25:00,
2013-05-16 20:31:00,58.6,35.0,29.74,WSW,251,6.0,7.0,41,0.00,,,0.00,Wunderground v.1.15,2013-05-17 03:31:00,
2013-05-16 20:37:00,58.4,34.8,29.74,WSW,245,6.0,10.0,41,0.00,,,0.00,Wunderground v.1.15,2013-05-17 03:37:00,
2013-05-16 20:43:00,58.1,35.7,29.74,WSW,238,7.0,9.0,43,0.00,,,0.00,Wunderground v.1.15,2013-05-17 03:43:00,
2013-05-16 20:49:00,57.8,35.4,29.75,WSW,240,8.0,11.0,43,0.00,,,0.00,Wunderground v.1.15,2013-05-17 03:49:00,
2013-05-16 20:55:00,57.5,35.7,29.75,WSW,238,8.0,10.0,44,0.00,,,0.00,Wunderground v.1.15,2013-05-17 03:55:00,
2013-05-16 21:00:00,57.4,35.6,29.75,SW,229,8.0,8.0,44,0.00,,,0.00,Wunderground v.1.15,2013-05-17 04:00:00,
2013-05-16 21:01:00,57.5,35.7,29.75,WSW,244,8.0,8.0,44,0.00,,,0.00,Wunderground v.1.15,2013-05-17 04:01:00,
2013-05-16 21:02:00,57.4,35.6,29.76,WSW,247,8.0,8.0,44,0.00,,,0.00,Wunderground v.1.15,2013-05-17 04:02:00,
2013-05-16 21:06:00,57.4,35.6,29.76,WSW,247,7.0,8.0,44,0.00,,,0.00,Wunderground v.1.15,2013-05-17 04:06:00,
2013-05-16 21:11:00,57.4,35.6,29.76,WSW,245,6.0,8.0,44,0.00,,,0.00,Wunderground v.1.15,2013-05-17 04:11:00,
2013-05-16 21:12:00,57.4,35.6,29.76,SW,233,6.0,8.0,44,0.00,,,0.00,Wunderground v.1.15,2013-05-17 04:12:00,
2013-05-16 21:17:00,57.3,35.6,29.76,WSW,250,7.0,8.0,44,0.00,,,0.00,Wunderground v.1.15,2013-05-17 04:17:00,
2013-05-16 21:18:00,57.3,35.6,29.76,WSW,255,6.0,8.0,44,0.00,,,0.00,Wunderground v.1.15,2013-05-17 04:18:00,
2013-05-16 21:23:00,57.3,35.0,29.76,WSW,244,5.0,6.0,43,0.00,,,0.00,Wunderground v.1.15,2013-05-17 04:23:00,
2013-05-16 21:29:00,57.1,34.8,29.77,WSW,248,5.0,7.0,43,0.00,,,0.00,Wunderground v.1.15,2013-05-17 04:29:00,
2013-05-16 21:35:00,56.9,34.0,29.77,West,262,5.0,6.0,42,0.00,,,0.00,Wunderground v.1.15,2013-05-17 04:35:00,
2013-05-16 21:41:00,56.7,33.8,29.77,WSW,255,4.0,5.0,42,0.00,,,0.00,Wunderground v.1.15,2013-05-17 04:41:00,
2013-05-16 21:47:00,56.4,34.2,29.77,WSW,243,4.0,5.0,43,0.00,,,0.00,Wunderground v.1.15,2013-05-17 04:47:00,
2013-05-16 21:53:00,56.2,33.4,29.77,WSW,251,4.0,8.0,42,0.00,,,0.00,Wunderground v.1.15,2013-05-17 04:53:00,
2013-05-16 21:59:00,56.2,33.4,29.77,WSW,255,7.0,9.0,42,0.00,,,0.00,Wunderground v.1.15,2013-05-17 04:59:00,
2013-05-16 22:05:00,56.0,33.8,29.77,West,269,8.0,11.0,43,0.00,,,0.00,Wunderground v.1.15,2013-05-17 05:05:00,
2013-05-16 22:11:00,55.9,33.1,29.77,WSW,257,9.0,11.0,42,0.00,,,0.00,Wunderground v.1.15,2013-05-17 05:11:00,
2013-05-16 22:17:00,55.8,33.0,29.77,West,274,9.0,11.0,42,0.00,,,0.00,Wunderground v.1.15,2013-05-17 05:17:00,
2013-05-16 22:23:00,55.5,32.8,29.77,WNW,283,8.0,9.0,42,0.00,,,0.00,Wunderground v.1.15,2013-05-17 05:23:00,
2013-05-16 22:29:00,54.9,33.9,29.78,West,271,5.0,9.0,45,0.00,,,0.00,Wunderground v.1.15,2013-05-17 05:29:00,
2013-05-16 22:35:00,54.5,33.6,29.78,West,263,5.0,9.0,45,0.00,,,0.00,Wunderground v.1.15,2013-05-17 05:35:00,
2013-05-16 22:40:00,54.3,33.4,29.77,West,269,6.0,9.0,45,0.00,,,0.00,Wunderground v.1.15,2013-05-17 05:40:00,
2013-05-16 22:46:00,54.6,33.1,29.77,West,262,7.0,9.0,44,0.00,,,0.00,Wunderground v.1.15,2013-05-17 05:46:00,
2013-05-16 22:52:00,54.3,33.4,29.78,West,266,6.0,6.0,45,0.00,,,0.00,Wunderground v.1.15,2013-05-17 05:52:00,
2013-05-16 22:58:00,53.9,33.6,29.78,West,263,3.0,6.0,46,0.00,,,0.00,Wunderground v.1.15,2013-05-17 05:58:00,
2013-05-16 23:04:00,53.4,33.1,29.77,West,261,2.0,2.0,46,0.00,,,0.00,Wunderground v.1.15,2013-05-17 06:04:00,
2013-05-16 23:10:00,53.1,33.9,29.77,NW,309,2.0,3.0,48,0.00,,,0.00,Wunderground v.1.15,2013-05-17 06:10:00,
2013-05-16 23:16:00,52.4,33.8,29.78,WNW,303,2.0,3.0,49,0.00,,,0.00,Wunderground v.1.15,2013-05-17 06:16:00,
2013-05-16 23:22:00,52.4,33.8,29.78,WNW,300,2.0,2.0,49,0.00,,,0.00,Wunderground v.1.15,2013-05-17 06:22:00,
2013-05-16 23:28:00,52.6,34.0,29.78,NW,304,2.0,4.0,49,0.00,,,0.00,Wunderground v.1.15,2013-05-17 06:28:00,
2013-05-16 23:34:00,52.6,34.0,29.78,West,263,2.0,2.0,49,0.00,,,0.00,Wunderground v.1.15,2013-05-17 06:34:00,
2013-05-16 23:40:00,52.4,34.3,29.78,WSW,258,1.0,1.0,50,0.00,,,0.00,Wunderground v.1.15,2013-05-17 06:40:00,
2013-05-16 23:46:00,51.7,34.1,29.78,SW,226,1.0,2.0,51,0.00,,,0.00,Wunderground v.1.15,2013-05-17 06:46:00,
2013-05-16 23:52:00,51.6,34.0,29.78,SW,233,2.0,2.0,51,0.00,,,0.00,Wunderground v.1.15,2013-05-17 06:52:00,
2013-05-16 23:58:00,51.7,33.6,29.78,WSW,238,1.0,2.0,50,0.00,,,0.00,Wunderground v.1.15,2013-05-17 06:58:00,